Time;durP1;ratioP1;P1;durP2;ratioP2;P2;SDS_P1;SDS_P2;PMS_P1;PMS_P2;Temp;Humidity;BMP_temperature;BMP_pressure;BME280_temperature;BME280_humidity;BME280_pressure;Samples;Min_cycle;Max_cycle;Signal;HPM_P1;HPM_P2
2023/01/16 00:00:56;;;;;;;7.60;1.70;;;4.60;99.90;;;5.15;100.00;96661.88;5040001;28;20971;-79
2023/01/16 00:03:26;;;;;;;3.30;1.23;;;4.70;99.90;;;5.13;100.00;96670.84;5038398;28;20513;-79
2023/01/16 00:05:57;;;;;;;9.20;1.37;;;4.80;99.90;;;5.11;100.00;96662.44;5035703;28;21045;-79
2023/01/16 00:08:27;;;;;;;5.40;1.50;;;4.70;99.90;;;5.11;100.00;96675.38;5037289;28;20556;-79
2023/01/16 00:10:58;;;;;;;1.37;0.80;;;4.70;99.90;;;5.07;100.00;96674.94;5037509;28;20493;-79
2023/01/16 00:13:27;;;;;;;0.90;0.90;;;4.70;99.90;;;5.06;100.00;96658.63;5035696;28;20466;-79
2023/01/16 00:15:59;;;;;;;2.20;0.90;;;4.70;99.90;;;4.91;100.00;96654.50;5036683;28;20461;-79
2023/01/16 00:18:28;;;;;;;3.33;1.00;;;4.50;99.90;;;4.92;100.00;96648.34;5037438;28;20582;-79
2023/01/16 00:20:57;;;;;;;2.03;1.00;;;4.50;99.90;;;4.89;100.00;96648.72;5034452;28;21034;-81
2023/01/16 00:23:28;;;;;;;4.90;1.30;;;4.40;99.90;;;4.89;100.00;96641.75;5037012;28;20472;-79
2023/01/16 00:25:58;;;;;;;1.20;1.00;;;4.50;99.90;;;4.90;100.00;96630.38;5034463;28;20462;-79
2023/01/16 00:28:27;;;;;;;2.13;0.90;;;4.50;99.90;;;4.91;100.00;96623.41;5037051;28;20472;-79
2023/01/16 00:30:58;;;;;;;1.67;0.90;;;4.50;99.90;;;4.92;100.00;96615.47;5036307;28;20461;-79
2023/01/16 00:33:27;;;;;;;5.27;1.10;;;4.50;99.90;;;4.94;100.00;96607.50;5035793;28;20496;-79
2023/01/16 00:35:56;;;;;;;3.60;1.50;;;4.50;99.90;;;4.95;100.00;96601.34;5037692;28;20468;-79
2023/01/16 00:38:26;;;;;;;1.90;1.10;;;4.40;99.90;;;4.91;100.00;96603.50;5035873;28;20549;-79
2023/01/16 00:40:56;;;;;;;4.13;0.90;;;4.50;99.90;;;4.92;100.00;96599.13;5035060;28;20501;-79
2023/01/16 00:43:25;;;;;;;1.77;0.97;;;4.40;99.90;;;4.94;100.00;96584.19;5036973;28;20501;-79
2023/01/16 00:45:56;;;;;;;2.53;1.10;;;4.50;99.90;;;4.88;100.00;96572.00;5035057;28;20556;-79
2023/01/16 00:48:28;;;;;;;2.47;1.37;;;4.40;99.90;;;4.90;100.00;96572.59;5036861;28;20461;-79
2023/01/16 00:50:58;;;;;;;1.73;1.00;;;4.40;99.90;;;4.92;100.00;96568.88;5035278;28;20466;-79
2023/01/16 00:53:28;;;;;;;1.30;0.87;;;4.40;99.90;;;4.93;100.00;96564.47;5036258;28;20976;-79
2023/01/16 00:55:58;;;;;;;2.20;1.10;;;4.50;99.90;;;4.91;100.00;96561.28;5036888;28;20494;-79
2023/01/16 00:58:28;;;;;;;7.00;1.10;;;4.50;99.90;;;4.86;100.00;96548.09;5036101;28;20713;-79
2023/01/16 01:00:59;;;;;;;1.83;1.20;;;4.40;99.90;;;4.92;100.00;96547.34;5033734;28;20476;-79
2023/01/16 01:03:31;;;;;;;2.83;1.20;;;4.40;99.90;;;4.95;100.00;96537.41;5036218;28;20473;-79
2023/01/16 01:06:00;;;;;;;4.87;1.33;;;4.50;99.90;;;4.96;100.00;96540.81;5034479;28;20559;-79
2023/01/16 01:08:31;;;;;;;12.00;1.77;;;4.50;99.90;;;4.99;100.00;96532.66;5034950;28;20466;-79
2023/01/16 01:11:11;;;;;;;3.90;1.60;;;4.50;99.90;;;5.03;100.00;96531.28;5036394;28;20476;-79
2023/01/16 01:13:41;;;;;;;1.40;1.10;;;4.50;99.90;;;5.06;100.00;96515.34;5035288;28;20454;-79
2023/01/16 01:16:12;;;;;;;3.80;1.37;;;4.60;99.90;;;5.08;100.00;96515.97;5036301;28;20464;-79
2023/01/16 01:18:43;;;;;;;5.47;1.30;;;4.60;99.90;;;5.11;100.00;96512.19;5036170;28;20501;-79
2023/01/16 01:21:14;;;;;;;2.30;1.30;;;4.70;99.90;;;5.12;100.00;96512.00;5036768;28;20909;-79
2023/01/16 01:23:44;;;;;;;1.53;1.10;;;4.60;99.90;;;5.16;100.00;96513.22;5039366;28;20964;-79
2023/01/16 01:26:17;;;;;;;1.73;1.37;;;4.70;99.90;;;5.14;100.00;96504.06;5040610;28;20531;-79
2023/01/16 01:28:47;;;;;;;3.57;1.70;;;4.70;99.90;;;5.17;100.00;96506.25;5037159;28;20458;-79
2023/01/16 01:31:16;;;;;;;3.93;1.20;;;4.70;99.90;;;5.18;100.00;96490.50;5037763;28;20987;-79
2023/01/16 01:33:48;;;;;;;2.70;1.33;;;4.80;99.90;;;5.16;100.00;96491.69;5039678;28;20470;-79
2023/01/16 01:36:18;;;;;;;1.93;1.27;;;4.70;99.90;;;5.18;100.00;96485.31;5037366;28;20461;-79
2023/01/16 01:38:50;;;;;;;4.33;1.80;;;4.70;99.90;;;5.19;100.00;96492.13;5039096;28;20453;-79
2023/01/16 01:41:19;;;;;;;4.30;1.80;;;4.80;99.90;;;5.17;100.00;96485.53;5037135;28;20489;-79
2023/01/16 01:43:52;;;;;;;2.80;1.30;;;4.80;99.90;;;5.15;100.00;96483.13;5037709;28;20469;-79
2023/01/16 01:46:27;;;;;;;4.27;1.17;;;4.70;99.90;;;5.15;100.00;96475.34;5037994;28;20879;-79
2023/01/16 01:49:05;;;;;;;1.90;1.10;;;4.70;99.90;;;5.16;100.00;96466.59;5036767;28;20466;-79
2023/01/16 01:51:41;;;;;;;3.60;1.30;;;4.70;99.90;;;5.15;100.00;96459.81;5035714;28;20472;-79
2023/01/16 01:54:16;;;;;;;4.40;1.30;;;4.80;99.90;;;5.16;100.00;96450.25;5035643;28;20467;-79
2023/01/16 01:56:50;;;;;;;3.37;1.50;;;4.70;99.90;;;5.19;100.00;96444.66;5037659;28;20544;-79
2023/01/16 01:59:28;;;;;;;2.53;1.30;;;4.70;99.90;;;5.20;100.00;96434.13;5038380;28;21143;-79
2023/01/16 02:01:57;;;;;;;3.50;1.33;;;4.80;99.90;;;5.21;100.00;96433.13;5034938;28;20548;-79
2023/01/16 02:04:44;;;;;;;4.13;1.70;;;4.80;99.90;;;5.22;100.00;96432.13;5034421;28;20551;-79
2023/01/16 02:07:18;;;;;;;2.17;1.60;;;4.80;99.90;;;5.22;100.00;96418.38;5035329;28;20523;-79
2023/01/16 02:09:48;;;;;;;7.73;1.20;;;4.80;99.90;;;5.19;100.00;96411.78;5033754;28;20445;-79
2023/01/16 02:12:19;;;;;;;4.20;2.13;;;4.80;99.90;;;5.16;100.00;96401.81;5034243;28;20583;-80
2023/01/16 02:14:50;;;;;;;1.27;1.10;;;4.70;99.90;;;5.17;100.00;96393.06;5035476;28;20466;-79
2023/01/16 02:20:27;;;;;;;3.13;1.10;;;4.80;99.90;;;5.17;100.00;96377.53;5034072;28;20504;-79
2023/01/16 02:23:54;;;;;;;4.10;1.20;;;4.80;99.90;;;5.16;100.00;96368.16;5036423;28;20969;-79
2023/01/16 02:26:49;;;;;;;1.57;1.00;;;4.80;99.90;;;5.11;100.00;96354.16;5034071;28;21341;-79
2023/01/16 02:30:20;;;;;;;4.53;1.40;;;4.70;99.90;;;5.11;100.00;96344.59;5034887;28;20453;-79
2023/01/16 02:33:06;;;;;;;1.20;1.10;;;4.60;99.90;;;5.12;100.00;96340.22;5034492;28;20544;-79
2023/01/16 02:36:06;;;;;;;1.83;1.13;;;4.60;99.90;;;5.13;100.00;96329.69;5035230;28;20457;-79
2023/01/16 02:38:49;;;;;;;2.83;1.13;;;4.70;99.90;;;5.15;100.00;96319.09;5034218;28;20619;-79
2023/01/16 02:41:41;;;;;;;2.13;1.10;;;4.60;99.90;;;5.16;100.00;96312.94;5034455;28;20477;-79
2023/01/16 02:44:25;;;;;;;1.83;1.00;;;4.70;99.90;;;5.16;100.00;96310.34;5036484;28;20479;-79
2023/01/16 02:47:17;;;;;;;2.93;1.40;;;4.70;99.90;;;5.16;100.00;96311.16;5036167;28;20466;-79
2023/01/16 02:50:02;;;;;;;2.70;1.07;;;4.70;99.90;;;5.16;100.00;96303.38;5037280;28;20460;-79
2023/01/16 02:52:41;;;;;;;7.90;1.53;;;4.70;99.90;;;5.15;100.00;96291.41;5037049;28;21205;-79
2023/01/16 02:55:21;;;;;;;2.43;1.00;;;4.80;99.90;;;5.15;100.00;96285.44;5033984;28;20454;-79
2023/01/16 02:58:00;;;;;;;4.10;1.30;;;4.70;99.90;;;5.16;100.00;96280.06;5034255;28;20556;-79
2023/01/16 03:00:31;;;;;;;4.07;1.20;;;4.80;99.90;;;5.16;100.00;96271.50;5032670;28;20485;-79
2023/01/16 03:03:01;;;;;;;8.00;1.43;;;4.70;99.90;;;5.18;100.00;96266.91;5034431;28;21226;-79
2023/01/16 03:05:49;;;;;;;1.30;1.20;;;4.80;99.90;;;5.18;100.00;96257.34;5032669;28;20823;-80
2023/01/16 03:08:40;;;;;;;7.80;1.30;;;4.80;99.90;;;5.18;100.00;96252.16;5035562;28;20544;-80
2023/01/16 03:11:23;;;;;;;1.90;1.30;;;4.80;99.90;;;5.19;100.00;96246.00;5034737;28;20981;-79
2023/01/16 03:14:20;;;;;;;4.20;1.20;;;4.80;99.90;;;5.20;100.00;96234.63;5035202;28;20519;-79
2023/01/16 03:17:13;;;;;;;1.93;1.20;;;4.80;99.90;;;5.15;100.00;96231.84;5031084;28;20461;-79
2023/01/16 03:20:06;;;;;;;1.90;0.90;;;4.70;99.90;;;5.16;100.00;96215.31;5035456;28;20973;-79
2023/01/16 03:22:47;;;;;;;4.00;1.40;;;4.70;99.90;;;5.20;100.00;96215.69;5037631;28;20465;-80
2023/01/16 03:25:29;;;;;;;1.83;1.40;;;4.70;99.90;;;5.23;100.00;96207.53;5037327;28;20461;-80
2023/01/16 03:28:12;;;;;;;2.97;1.30;;;4.70;99.90;;;5.20;100.00;96195.78;5037502;28;20492;-79
2023/01/16 03:30:55;;;;;;;1.40;1.10;;;4.70;99.90;;;5.23;100.00;96197.97;5031598;28;20581;-79
2023/01/16 03:33:42;;;;;;;3.90;1.37;;;4.70;99.90;;;5.25;100.00;96184.78;5033764;28;20535;-79
2023/01/16 03:36:21;;;;;;;1.10;1.00;;;4.80;99.90;;;5.23;100.00;96182.44;5034902;28;21279;-79
2023/01/16 03:38:56;;;;;;;3.23;1.27;;;4.80;99.90;;;5.24;100.00;96172.84;5036269;28;20884;-79
2023/01/16 03:41:31;;;;;;;2.80;1.10;;;4.70;99.90;;;5.26;100.00;96176.84;5031565;28;20497;-79
2023/01/16 03:44:08;;;;;;;2.10;1.03;;;4.80;99.90;;;5.28;100.00;96176.63;5035864;28;20560;-79
2023/01/16 03:46:48;;;;;;;3.00;1.40;;;4.90;99.90;;;5.22;100.00;96160.09;5036241;28;20873;-79
2023/01/16 03:49:23;;;;;;;4.90;1.20;;;4.90;99.90;;;5.19;100.00;96154.50;5035954;28;20939;-79
2023/01/16 03:51:58;;;;;;;1.63;1.10;;;4.80;99.90;;;5.20;100.00;96146.56;5037309;28;20537;-79
2023/01/16 03:54:43;;;;;;;2.40;1.10;;;4.70;99.90;;;5.24;100.00;96141.78;5033088;28;20465;-79
2023/01/16 03:57:20;;;;;;;6.73;1.40;;;4.80;99.90;;;5.22;100.00;96129.00;5034706;28;20476;-79
2023/01/16 03:59:52;;;;;;;2.73;1.30;;;4.80;99.90;;;5.24;100.00;96128.81;5034058;28;20560;-79
2023/01/16 04:02:31;;;;;;;1.10;1.00;;;4.80;99.90;;;5.22;100.00;96118.66;5031460;28;20503;-79
2023/01/16 04:05:09;;;;;;;2.40;1.00;;;4.80;99.90;;;5.22;100.00;96108.28;5030900;28;20492;-79
2023/01/16 04:07:46;;;;;;;2.30;1.33;;;4.90;99.90;;;5.21;100.00;96093.72;5033462;28;20476;-76
2023/01/16 04:10:25;;;;;;;4.67;2.00;;;4.80;99.90;;;5.23;100.00;96088.34;5039743;28;20461;-79
2023/01/16 04:12:58;;;;;;;5.70;1.70;;;4.80;99.90;;;5.21;100.00;96073.00;5036020;28;20470;-79
2023/01/16 04:15:31;;;;;;;1.63;1.20;;;4.80;99.90;;;5.23;100.00;96078.78;5036269;28;20469;-83
2023/01/16 04:18:02;;;;;;;2.10;1.33;;;4.80;99.90;;;5.22;100.00;96064.25;5039285;28;20485;-79
2023/01/16 04:20:33;;;;;;;1.47;1.10;;;4.80;99.90;;;5.23;100.00;96050.28;5035491;28;20457;-75
2023/01/16 04:23:02;;;;;;;1.97;1.50;;;4.80;99.90;;;5.22;100.00;96045.31;5037905;28;21073;-78
2023/01/16 04:25:34;;;;;;;4.13;1.37;;;4.80;99.90;;;5.24;100.00;96038.91;5038655;28;20473;-79
2023/01/16 04:28:05;;;;;;;4.90;1.73;;;4.80;99.90;;;5.24;100.00;96028.53;5038261;28;20553;-79
2023/01/16 04:30:34;;;;;;;1.73;1.30;;;4.70;99.90;;;5.25;100.00;96017.19;5039352;28;20576;-79
2023/01/16 04:33:07;;;;;;;1.20;1.10;;;4.80;99.90;;;5.24;100.00;96007.06;5039049;28;20492;-79
2023/01/16 04:35:37;;;;;;;3.03;0.90;;;4.80;99.90;;;5.22;100.00;95999.47;5039032;28;20458;-79
2023/01/16 04:38:07;;;;;;;2.87;1.37;;;4.80;99.90;;;5.24;100.00;95994.09;5039672;28;20457;-79
2023/01/16 04:40:38;;;;;;;2.20;1.03;;;4.70;99.90;;;5.24;100.00;95981.91;5039465;28;20489;-79
2023/01/16 04:43:09;;;;;;;4.10;1.40;;;4.80;99.90;;;5.23;100.00;95975.16;5040389;28;20896;-79
2023/01/16 04:45:39;;;;;;;4.00;1.00;;;4.70;99.90;;;5.23;100.00;95959.63;5037929;28;20548;-79
2023/01/16 04:48:10;;;;;;;2.17;1.20;;;4.70;99.90;;;5.23;100.00;95938.09;5037719;28;20580;-79
2023/01/16 04:50:40;;;;;;;8.20;1.30;;;4.80;99.90;;;5.20;100.00;95943.69;5036772;28;20528;-79
2023/01/16 04:53:10;;;;;;;2.83;1.30;;;4.70;99.90;;;5.18;100.00;95930.94;5037947;28;20462;-79
2023/01/16 04:55:41;;;;;;;2.70;1.30;;;4.70;99.90;;;5.19;100.00;95922.16;5038368;28;20553;-79
2023/01/16 04:58:11;;;;;;;1.50;1.20;;;4.80;99.90;;;5.20;100.00;95903.03;5038543;28;20480;-79
2023/01/16 05:00:40;;;;;;;2.40;1.47;;;4.80;99.90;;;5.16;100.00;95906.25;5040689;28;20511;-79
2023/01/16 05:03:11;;;;;;;1.73;1.27;;;4.70;99.90;;;5.19;100.00;95898.06;5041074;28;20482;-79
2023/01/16 05:05:41;;;;;;;7.13;1.50;;;4.80;99.90;;;5.15;100.00;95889.91;5037971;28;20520;-79
2023/01/16 05:08:17;;;;;;;3.00;1.10;;;4.70;99.90;;;5.15;100.00;95884.72;5037714;28;20466;-79
2023/01/16 05:10:48;;;;;;;1.90;1.10;;;4.70;99.90;;;5.17;100.00;95877.56;5038890;28;20468;-79
2023/01/16 05:13:18;;;;;;;2.13;1.30;;;4.70;99.90;;;5.14;100.00;95870.16;5037178;28;20539;-79
2023/01/16 05:15:47;;;;;;;3.90;1.10;;;4.60;99.90;;;5.15;100.00;95866.59;5038283;28;20511;-79
2023/01/16 05:18:17;;;;;;;1.83;1.20;;;4.70;99.90;;;5.15;100.00;95852.84;5039454;28;20548;-79
2023/01/16 05:20:48;;;;;;;1.10;0.90;;;4.70;99.90;;;5.16;100.00;95849.25;5037837;28;20459;-79
2023/01/16 05:23:18;;;;;;;3.30;1.03;;;4.70;99.90;;;5.15;100.00;95834.72;5033175;28;20564;-79
2023/01/16 05:25:49;;;;;;;16.60;7.33;;;4.70;99.90;;;5.10;100.00;95825.00;5034556;28;20462;-79
2023/01/16 05:28:18;;;;;;;3.97;2.07;;;4.70;99.90;;;5.13;100.00;95813.41;5036049;28;20555;-79
2023/01/16 05:30:49;;;;;;;5.60;1.57;;;4.70;99.90;;;5.11;100.00;95794.69;5035746;28;20470;-79
2023/01/16 05:33:20;;;;;;;5.03;1.33;;;4.70;99.90;;;5.12;100.00;95791.88;5037141;28;20544;-79
2023/01/16 05:35:51;;;;;;;4.67;1.13;;;4.70;99.90;;;5.07;100.00;95783.94;5032121;28;20474;-79
2023/01/16 05:38:21;;;;;;;2.90;1.03;;;4.60;99.90;;;5.11;100.00;95773.97;5032887;28;20472;-79
2023/01/16 05:40:53;;;;;;;2.70;1.30;;;4.60;99.90;;;5.11;100.00;95774.75;5034166;28;20473;-79
2023/01/16 05:43:23;;;;;;;6.93;1.50;;;4.60;99.90;;;5.12;100.00;95767.78;5035851;28;20493;-79
2023/01/16 05:45:53;;;;;;;1.97;1.30;;;4.60;99.90;;;5.10;100.00;95757.66;5037287;28;20568;-79
2023/01/16 05:48:23;;;;;;;5.60;1.23;;;4.50;99.90;;;5.12;100.00;95754.84;5034586;28;20504;-80
2023/01/16 05:50:54;;;;;;;5.10;1.23;;;4.50;99.90;;;5.07;100.00;95748.47;5037808;28;20473;-79
2023/01/16 05:53:27;;;;;;;2.60;1.17;;;4.50;99.90;;;5.10;100.00;95736.94;5036455;28;20473;-79
2023/01/16 05:55:58;;;;;;;3.60;1.40;;;4.60;99.90;;;5.09;100.00;95730.16;5034176;28;20473;-80
2023/01/16 05:58:28;;;;;;;4.53;1.07;;;4.50;99.90;;;5.09;100.00;95724.97;5035632;28;20871;-79
2023/01/16 06:00:58;;;;;;;7.03;1.43;;;4.60;99.90;;;5.08;100.00;95713.81;5036275;28;21301;-79
2023/01/16 06:03:28;;;;;;;5.80;1.10;;;4.50;99.90;;;5.07;100.00;95712.22;5031664;28;21047;-79
2023/01/16 06:06:00;;;;;;;5.80;1.20;;;4.50;99.90;;;5.09;100.00;95704.25;5033133;28;20465;-79
2023/01/16 06:08:31;;;;;;;2.20;1.40;;;4.60;99.90;;;5.03;100.00;95700.69;5035649;28;20457;-79
2023/01/16 06:11:03;;;;;;;1.67;0.90;;;4.50;99.90;;;5.01;100.00;95691.56;5035353;28;20466;-79
2023/01/16 06:13:33;;;;;;;1.77;1.20;;;4.50;99.90;;;4.98;100.00;95686.78;5034524;28;20461;-79
2023/01/16 06:16:03;;;;;;;3.73;1.10;;;4.40;99.90;;;4.97;100.00;95682.63;5033448;28;20545;-79
2023/01/16 06:18:34;;;;;;;6.67;1.47;;;4.40;99.90;;;4.96;100.00;95670.69;5035041;28;20473;-80
2023/01/16 06:21:03;;;;;;;2.70;1.23;;;4.40;99.90;;;4.96;100.00;95663.69;5033501;28;20568;-79
2023/01/16 06:23:33;;;;;;;2.83;1.63;;;4.50;99.90;;;4.93;100.00;95658.94;5032731;28;20568;-80
2023/01/16 06:26:09;;;;;;;4.00;1.43;;;4.40;99.90;;;4.95;100.00;95656.16;5034353;28;20462;-79
2023/01/16 06:28:38;;;;;;;1.30;1.20;;;4.30;99.90;;;4.89;100.00;95657.00;5034487;28;20489;-81
2023/01/16 06:31:09;;;;;;;2.70;1.33;;;4.30;99.90;;;4.88;100.00;95651.03;5033906;28;20510;-79
2023/01/16 06:33:38;;;;;;;5.73;1.50;;;4.30;99.90;;;4.89;100.00;95646.66;5031481;28;20471;-79
2023/01/16 06:36:08;;;;;;;1.23;1.13;;;4.30;99.90;;;4.87;100.00;95640.88;5034714;28;20495;-79
2023/01/16 06:38:38;;;;;;;5.13;1.23;;;4.20;99.90;;;4.86;100.00;95623.78;5031832;28;20476;-79
2023/01/16 06:41:09;;;;;;;3.13;1.50;;;4.30;99.90;;;4.85;100.00;95614.41;5035402;28;20552;-79
2023/01/16 06:43:38;;;;;;;1.87;1.10;;;4.20;99.90;;;4.82;100.00;95601.88;5036063;28;20854;-79
2023/01/16 06:46:08;;;;;;;1.47;1.13;;;4.30;99.90;;;4.79;100.00;95595.31;5035226;28;20689;-79
2023/01/16 06:48:38;;;;;;;2.77;1.10;;;4.20;99.90;;;4.76;100.00;95582.00;5036095;28;20461;-79
2023/01/16 06:51:07;;;;;;;6.60;1.20;;;4.10;99.90;;;4.78;100.00;95573.03;5034781;28;20565;-78
2023/01/16 06:53:37;;;;;;;3.53;1.00;;;4.10;99.90;;;4.81;100.00;95564.06;5033628;28;20544;-80
2023/01/16 06:56:09;;;;;;;8.33;1.70;;;4.20;99.90;;;4.80;100.00;95560.66;5034016;28;20809;-79
2023/01/16 06:58:39;;;;;;;2.70;1.07;;;4.20;99.90;;;4.78;100.00;95554.13;5034499;28;20500;-79
2023/01/16 07:01:10;;;;;;;2.03;1.20;;;4.20;99.90;;;4.75;100.00;95547.59;5034034;28;20461;-79
2023/01/16 07:03:40;;;;;;;1.80;1.10;;;4.20;99.90;;;4.75;100.00;95551.97;5034334;28;20499;-79
2023/01/16 07:06:09;;;;;;;3.73;1.10;;;4.10;99.90;;;4.77;100.00;95547.34;5034455;28;20528;-80
2023/01/16 07:08:38;;;;;;;4.27;1.40;;;4.20;99.90;;;4.75;100.00;95551.97;5033651;28;20496;-79
2023/01/16 07:11:09;;;;;;;3.10;1.03;;;4.20;99.90;;;4.77;100.00;95547.34;5034331;28;20559;-82
2023/01/16 07:13:38;;;;;;;2.20;1.47;;;4.20;99.90;;;4.79;100.00;95537.59;5033217;28;21001;-80
2023/01/16 07:24:47;;;;;;;0.80;0.80;;;4.30;99.90;;;4.68;100.00;95489.91;5015238;28;20500;-80
2023/01/16 07:27:18;;;;;;;1.20;1.00;;;4.30;99.90;;;4.61;100.00;95493.56;5033333;28;20464;-79
2023/01/16 07:29:48;;;;;;;1.60;1.03;;;4.20;99.90;;;4.53;100.00;95498.00;5033945;28;20493;-79
2023/01/16 07:32:18;;;;;;;8.20;1.40;;;4.10;99.90;;;4.44;100.00;95483.72;5035932;28;20461;-79
2023/01/16 07:34:48;;;;;;;2.47;1.10;;;4.10;99.90;;;4.45;100.00;95477.56;5031812;28;20504;-79
2023/01/16 07:37:18;;;;;;;3.87;1.13;;;4.00;99.90;;;4.45;100.00;95456.88;5035010;28;20457;-79
2023/01/16 07:39:49;;;;;;;2.00;0.83;;;4.00;99.90;;;4.43;100.00;95455.50;5035501;28;20542;-79
2023/01/16 07:42:20;;;;;;;1.20;1.00;;;4.00;99.90;;;4.35;100.00;95453.97;5033803;28;20577;-79
2023/01/16 07:44:51;;;;;;;2.40;1.23;;;3.90;99.90;;;4.35;100.00;95443.63;5036752;28;20468;-79
2023/01/16 07:47:21;;;;;;;1.37;1.00;;;3.90;99.90;;;4.36;100.00;95455.56;5037084;28;20465;-79
2023/01/16 07:49:52;;;;;;;1.33;1.20;;;4.00;99.90;;;4.31;100.00;95452.81;5039159;28;20453;-79
2023/01/16 07:52:22;;;;;;;1.53;1.03;;;3.90;99.90;;;4.28;100.00;95442.88;5036801;28;20572;-79
2023/01/16 07:54:53;;;;;;;4.13;1.40;;;3.90;99.90;;;4.26;100.00;95437.16;5037984;28;20461;-80
2023/01/16 07:57:25;;;;;;;1.73;0.83;;;3.90;99.90;;;4.25;100.00;95432.97;5037283;28;20753;-79
2023/01/16 07:59:54;;;;;;;3.57;1.10;;;3.80;99.90;;;4.26;100.00;95424.22;5041532;28;20539;-79
2023/01/16 08:02:23;;;;;;;9.60;1.17;;;3.80;99.90;;;4.30;100.00;95425.38;5035926;28;20492;-80
2023/01/16 08:04:54;;;;;;;1.30;0.90;;;3.80;99.90;;;4.29;100.00;95412.66;5035734;28;20549;-80
2023/01/16 08:07:24;;;;;;;1.60;1.00;;;3.80;99.90;;;4.27;100.00;95414.66;5039785;28;20472;-80
2023/01/16 08:09:54;;;;;;;1.20;1.10;;;3.80;99.90;;;4.25;100.00;95412.28;5039119;28;20971;-80
2023/01/16 08:12:24;;;;;;;2.63;1.00;;;3.90;99.90;;;4.23;100.00;95408.34;5041328;28;20504;-80
2023/01/16 08:14:55;;;;;;;1.30;0.97;;;3.70;99.90;;;4.24;100.00;95395.19;5035064;28;20468;-79
2023/01/16 08:17:24;;;;;;;2.10;1.00;;;3.80;99.90;;;4.24;100.00;95402.13;5035198;28;20493;-79
2023/01/16 08:19:56;;;;;;;2.50;0.87;;;3.80;99.90;;;4.24;100.00;95400.34;5037315;28;20544;-80
2023/01/16 08:22:25;;;;;;;1.10;1.00;;;3.80;99.90;;;4.20;100.00;95391.44;5037275;28;20556;-79
2023/01/16 08:24:56;;;;;;;4.73;3.07;;;3.80;99.90;;;4.18;100.00;95377.94;5037675;28;20919;-80
2023/01/16 08:27:27;;;;;;;1.37;0.90;;;3.70;99.90;;;4.19;100.00;95382.09;5038757;28;20460;-80
2023/01/16 08:29:57;;;;;;;1.80;1.20;;;3.70;99.90;;;4.20;100.00;95373.31;5037241;28;20506;-80
2023/01/16 08:32:26;;;;;;;0.90;0.90;;;3.80;99.90;;;4.14;100.00;95363.84;5034301;28;20508;-79
2023/01/16 08:34:55;;;;;;;1.93;1.00;;;3.70;99.90;;;4.13;100.00;95366.66;5035988;28;20504;-80
2023/01/16 08:37:24;;;;;;;1.20;0.90;;;3.70;99.90;;;4.13;100.00;95364.84;5038267;28;20474;-80
2023/01/16 08:39:55;;;;;;;2.00;0.93;;;3.70;99.90;;;4.12;100.00;95365.88;5036155;28;20468;-79
2023/01/16 08:53:37;;;;;;;3.13;1.00;;;3.70;99.90;;;4.09;100.00;95327.50;5036053;28;20567;-79
2023/01/16 08:56:10;;;;;;;0.90;0.90;;;3.70;99.90;;;4.06;100.00;95340.88;5036020;28;21179;-79
2023/01/16 08:58:42;;;;;;;3.20;1.20;;;3.60;99.90;;;4.03;100.00;95334.31;5036595;28;20899;-79
2023/01/16 09:01:13;;;;;;;0.80;0.80;;;3.60;99.90;;;4.07;100.00;95324.34;5036155;28;20464;-79
2023/01/16 09:03:44;;;;;;;0.70;0.70;;;3.70;99.90;;;4.06;100.00;95325.34;5034810;28;20497;-79
2023/01/16 09:06:14;;;;;;;1.90;0.87;;;3.60;99.90;;;4.03;100.00;95316.22;5036943;28;20471;-79
2023/01/16 09:08:43;;;;;;;0.93;0.83;;;3.70;99.90;;;4.01;100.00;95327.78;5035615;28;20576;-79
2023/01/16 09:14:02;;;;;;;1.10;0.80;;;3.60;99.90;;;3.98;100.00;95312.69;5035328;28;20466;-79
2023/01/16 09:16:45;;;;;;;3.03;1.00;;;3.60;99.90;;;3.99;100.00;95307.28;5033316;28;20551;-79
2023/01/16 09:19:15;;;;;;;0.97;0.90;;;3.60;99.90;;;4.03;100.00;95310.25;5036890;28;20457;-80
2023/01/16 09:21:44;;;;;;;0.90;0.90;;;3.60;99.90;;;4.05;100.00;95297.91;5035097;28;20529;-80
2023/01/16 09:24:15;;;;;;;0.90;0.90;;;3.70;99.90;;;4.05;100.00;95293.53;5033922;28;20591;-80
2023/01/16 09:26:44;;;;;;;1.10;1.00;;;3.70;99.90;;;4.06;100.00;95294.34;5035901;28;20595;-80
2023/01/16 09:29:16;;;;;;;1.07;0.80;;;3.70;99.90;;;4.05;100.00;95282.41;5034304;28;20569;-79
2023/01/16 09:31:46;;;;;;;1.20;1.03;;;3.70;99.90;;;4.08;100.00;95274.22;5033150;28;20477;-80
2023/01/16 09:34:15;;;;;;;1.80;0.90;;;3.70;99.90;;;4.10;100.00;95263.63;5036502;28;20463;-75
2023/01/16 09:36:45;;;;;;;1.17;1.00;;;3.70;99.90;;;4.12;100.00;95269.41;5034232;28;22173;-80
2023/01/16 09:39:14;;;;;;;1.53;0.93;;;3.80;99.90;;;4.13;100.00;95261.41;5038922;28;20999;-80
2023/01/16 09:44:57;;;;;;;1.10;1.00;;;3.70;99.90;;;4.23;100.00;95258.34;5037702;28;20918;-80
2023/01/16 09:47:29;;;;;;;2.93;1.57;;;3.80;99.90;;;4.26;100.00;95260.50;5038079;28;20465;-80
2023/01/16 09:50:06;;;;;;;1.60;1.17;;;3.90;99.90;;;4.28;100.00;95246.34;5038580;28;20469;-79
2023/01/16 09:58:38;;;;;;;1.10;1.00;;;4.00;99.90;;;4.44;100.00;95234.63;5038835;28;20492;-80
2023/01/16 10:01:15;;;;;;;1.17;1.07;;;4.00;99.90;;;4.49;100.00;95220.00;5037175;28;21004;-79
2023/01/16 10:03:44;;;;;;;2.07;1.07;;;4.10;99.90;;;4.54;100.00;95219.38;5033588;28;20483;-79
2023/01/16 10:06:25;;;;;;;0.93;0.73;;;4.10;99.90;;;4.58;100.00;95218.69;5032023;28;20549;-79
2023/01/16 10:09:07;;;;;;;1.83;0.80;;;4.10;99.90;;;4.65;100.00;95210.06;5035317;28;20548;-79
2023/01/16 10:11:49;;;;;;;0.73;0.73;;;4.30;99.90;;;4.69;100.00;95206.00;5034463;28;20547;-79
2023/01/16 10:14:57;;;;;;;1.00;0.87;;;4.30;99.90;;;4.74;100.00;95203.56;5032291;28;20492;-80
2023/01/16 10:17:41;;;;;;;0.70;0.70;;;4.30;99.90;;;4.76;100.00;95196.34;5032795;28;20465;-79
2023/01/16 10:20:31;;;;;;;0.70;0.70;;;4.40;99.90;;;4.81;100.00;95197.28;5034863;28;20484;-79
2023/01/16 10:23:22;;;;;;;5.10;3.23;;;4.40;99.90;;;4.84;100.00;95185.69;5033953;28;20458;-74
2023/01/16 10:26:04;;;;;;;2.40;1.10;;;4.50;99.90;;;4.86;100.00;95186.28;5036411;28;20565;-79
2023/01/16 10:28:52;;;;;;;3.57;1.30;;;4.50;99.90;;;4.88;100.00;95181.66;5036989;28;20572;-79
2023/01/16 10:31:29;;;;;;;5.60;0.73;;;4.50;99.90;;;4.93;100.00;95174.00;5034630;28;21062;-79
2023/01/16 10:34:06;;;;;;;1.00;0.90;;;4.60;99.90;;;4.92;100.00;95172.44;5036871;28;20466;-79
2023/01/16 10:36:45;;;;;;;0.73;0.73;;;4.50;99.90;;;4.95;100.00;95162.41;5036958;28;20588;-79
2023/01/16 10:39:22;;;;;;;1.10;1.00;;;4.50;99.90;;;4.96;100.00;95151.03;5037928;28;20473;-81
2023/01/16 10:50:37;;;;;;;7.87;3.50;;;4.60;99.90;;;5.07;100.00;95126.16;5037650;28;21083;-79
2023/01/16 10:53:09;;;;;;;1.10;1.00;;;4.60;99.90;;;5.09;100.00;95129.34;5034551;28;20468;-79
2023/01/16 10:55:43;;;;;;;143.00;71.27;;;4.70;99.90;;;5.09;100.00;95111.22;5035392;28;20567;-76
2023/01/16 10:58:27;;;;;;;4.00;2.40;;;4.70;99.90;;;5.11;100.00;95100.59;5037471;28;20573;-79
2023/01/16 11:01:03;;;;;;;1.00;0.80;;;4.60;99.90;;;5.13;100.00;95104.56;5036295;28;20472;-79
2023/01/16 11:03:42;;;;;;;0.80;0.80;;;4.70;99.90;;;5.17;100.00;95090.16;5033301;28;20461;-79
2023/01/16 11:06:21;;;;;;;5.87;1.03;;;4.80;99.90;;;5.21;100.00;95086.09;5036618;28;20496;-79
2023/01/16 11:08:55;;;;;;;0.80;0.80;;;4.90;99.90;;;5.20;100.00;95074.16;5035052;28;20465;-80
2023/01/16 11:20:20;;;;;;;1.10;0.90;;;4.90;99.90;;;5.26;100.00;95024.03;5042176;28;20495;-79
2023/01/16 11:22:58;;;;;;;0.83;0.70;;;4.90;99.90;;;5.28;100.00;95022.00;5041381;28;20460;-79
2023/01/16 11:25:29;;;;;;;0.90;0.80;;;4.90;99.90;;;5.29;100.00;95020.97;5039262;28;21096;-79
2023/01/16 11:28:05;;;;;;;0.80;0.73;;;4.90;99.90;;;5.28;100.00;95003.88;5039863;28;20458;-79
2023/01/16 11:30:41;;;;;;;1.03;0.97;;;4.90;99.90;;;5.31;100.00;94995.63;5041340;28;20504;-79
2023/01/16 11:33:18;;;;;;;1.40;0.90;;;5.00;99.90;;;5.31;100.00;94990.44;5039324;28;20540;-79
2023/01/16 11:35:55;;;;;;;0.83;0.83;;;5.00;99.90;;;5.35;100.00;94983.00;5039333;28;20584;-79
2023/01/16 11:38:33;;;;;;;2.50;1.40;;;5.00;99.90;;;5.37;100.00;94976.59;5039900;28;20497;-79
2023/01/16 11:41:07;;;;;;;1.63;1.10;;;5.00;99.90;;;5.39;100.00;94959.00;5043061;28;20461;-79
2023/01/16 11:46:38;;;;;;;1.10;0.80;;;5.00;99.90;;;5.35;100.00;94942.34;5023404;28;20477;-79
2023/01/16 11:49:19;;;;;;;11.93;5.90;;;5.00;99.90;;;5.35;100.00;94931.97;5037620;28;20485;-79